Time;durP1;ratioP1;P1;durP2;ratioP2;P2;SDS_P1;SDS_P2;PMS_P1;PMS_P2;Temp;Humidity;BMP_temperature;BMP_pressure;BME280_temperature;BME280_humidity;BME280_pressure;Samples;Min_cycle;Max_cycle;Signal;HPM_P1;HPM_P2
2022/09/05 00:00:05;;;;;;;1999.90;999.90;;;;;;;16.24;89.11;98991.56;4154713;28;20217;-48
2022/09/05 00:02:33;;;;;;;1999.90;999.90;;;;;;;16.23;89.01;98981.63;4171777;28;20211;-51
2022/09/05 00:04:50;;;;;;;1999.90;999.90;;;;;;;16.16;89.56;98986.59;4189001;28;20215;-49
2022/09/05 00:07:36;;;;;;;1999.90;999.90;;;;;;;16.21;88.73;98981.06;4171548;28;20205;-49
2022/09/05 00:09:58;;;;;;;1999.90;999.90;;;;;;;16.27;88.50;98985.50;4171028;28;20212;-49
2022/09/05 00:12:02;;;;;;;1999.90;999.90;;;;;;;16.20;88.62;98990.47;4162247;28;20205;-49
2022/09/05 00:14:31;;;;;;;1999.90;999.90;;;;;;;16.19;88.84;98986.06;4154580;28;20224;-49
2022/09/05 00:17:07;;;;;;;1999.90;999.90;;;;;;;16.14;89.24;98985.19;4158718;28;20229;-48
2022/09/05 00:19:21;;;;;;;1999.90;999.90;;;;;;;16.17;88.76;98982.72;4172750;28;20227;-49
2022/09/05 00:22:09;;;;;;;1999.90;999.90;;;;;;;15.97;90.94;98988.19;4170171;28;20213;-49
2022/09/05 00:24:49;;;;;;;1999.90;999.90;;;;;;;15.97;90.58;98985.44;4171518;28;20830;-49
2022/09/05 00:27:27;;;;;;;1999.90;999.90;;;;;;;16.03;89.72;98981.59;4187913;28;20215;-48
2022/09/05 00:29:48;;;;;;;1999.90;999.90;;;;;;;16.09;89.18;98982.44;4154291;28;20197;-48
2022/09/05 00:32:18;;;;;;;1999.90;999.90;;;;;;;16.10;89.46;98976.63;4171688;28;20216;-49
2022/09/05 00:34:42;;;;;;;1999.90;999.90;;;;;;;16.05;89.65;98971.13;4171170;28;20299;-49
2022/09/05 00:36:53;;;;;;;1999.90;999.90;;;;;;;16.06;89.07;98972.78;4188241;28;20264;-49
2022/09/05 00:39:13;;;;;;;1999.90;999.90;;;;;;;16.08;89.11;98973.31;4168536;28;20630;-49
2022/09/05 00:41:16;;;;;;;1999.90;999.90;;;;;;;15.96;89.81;98967.22;4156261;28;20279;-49
2022/09/05 00:43:27;;;;;;;1999.90;999.90;;;;;;;16.00;89.85;98973.03;4171966;28;20211;-49
2022/09/05 00:45:41;;;;;;;1999.90;999.90;;;;;;;15.99;90.30;98960.34;4171453;28;20215;-49
2022/09/05 00:47:56;;;;;;;1999.90;999.90;;;;;;;15.99;89.74;98961.19;4156318;28;20232;-49
2022/09/05 00:50:06;;;;;;;1999.90;999.90;;;;;;;15.97;89.60;98962.53;4155697;28;20840;-48
2022/09/05 00:52:26;;;;;;;1999.90;999.90;;;;;;;15.94;89.20;98958.41;4161571;28;20203;-49
2022/09/05 00:54:39;;;;;;;1999.90;999.90;;;;;;;15.93;89.06;98959.50;4153939;28;20202;-49
2022/09/05 00:57:00;;;;;;;1999.90;999.90;;;;;;;15.88;89.29;98959.50;4159628;28;20227;-49
2022/09/05 00:59:36;;;;;;;1999.90;999.90;;;;;;;15.87;88.74;98963.34;4166281;28;20231;-48
2022/09/05 01:01:46;;;;;;;1999.90;999.90;;;;;;;15.92;88.71;98966.13;4166101;28;20207;-49
2022/09/05 01:03:56;;;;;;;1999.90;999.90;;;;;;;15.93;88.41;98965.03;4157696;28;20243;-49
2022/09/05 01:06:19;;;;;;;1999.90;999.90;;;;;;;15.92;88.37;98965.28;4170607;28;20208;-48
2022/09/05 01:08:46;;;;;;;1999.90;999.90;;;;;;;15.92;87.75;98966.13;4130181;28;20769;-49
2022/09/05 01:10:59;;;;;;;1999.90;999.90;;;;;;;15.94;87.42;98971.34;4171642;28;20192;-48
2022/09/05 01:13:26;;;;;;;1999.90;999.90;;;;;;;15.89;87.45;98972.19;4153176;28;20300;-49
2022/09/05 01:15:52;;;;;;;1999.90;999.90;;;;;;;15.87;87.29;98974.41;4172104;28;20212;-50
2022/09/05 01:18:24;;;;;;;1999.90;999.90;;;;;;;15.84;87.41;98974.91;4171553;28;20603;-49
2022/09/05 01:20:50;;;;;;;1999.90;999.90;;;;;;;15.84;87.54;98985.16;4176701;28;20228;-49
2022/09/05 01:22:52;;;;;;;1999.90;999.90;;;;;;;15.79;87.68;98976.84;4186314;28;20262;-50
2022/09/05 01:25:03;;;;;;;1999.90;999.90;;;;;;;15.68;88.50;98970.47;4157522;28;20284;-50
2022/09/05 01:27:32;;;;;;;1999.90;999.90;;;;;;;15.62;88.58;98971.56;4159867;28;20215;-49
2022/09/05 01:30:16;;;;;;;1999.90;999.90;;;;;;;15.64;88.62;98974.88;4156590;28;20213;-48
2022/09/05 01:32:18;;;;;;;1999.90;999.90;;;;;;;15.64;88.33;98974.06;4143612;28;20222;-49
2022/09/05 01:34:28;;;;;;;1999.90;999.90;;;;;;;15.60;88.28;98973.78;4172615;28;20224;-49
2022/09/05 01:36:56;;;;;;;1999.90;999.90;;;;;;;15.58;88.45;98973.22;4156775;28;20659;-49
2022/09/05 01:39:03;;;;;;;1999.90;999.90;;;;;;;15.57;88.52;98973.50;4168917;28;20240;-49
2022/09/05 01:41:56;;;;;;;1999.90;999.90;;;;;;;15.58;88.76;98972.38;4158361;28;20235;-49
2022/09/05 01:44:06;;;;;;;1999.90;999.90;;;;;;;15.53;88.54;98967.69;4155369;28;20291;-49
2022/09/05 01:46:50;;;;;;;1999.90;999.90;;;;;;;15.48;89.36;98967.66;4159124;28;20193;-50
2022/09/05 01:49:23;;;;;;;1999.90;999.90;;;;;;;15.29;91.06;98973.91;4184934;28;20230;-49
2022/09/05 01:51:33;;;;;;;1999.90;999.90;;;;;;;15.15;91.83;98970.78;4154263;28;20212;-49
2022/09/05 01:54:12;;;;;;;1999.90;999.90;;;;;;;15.18;92.04;98964.75;4153846;28;20253;-50
2022/09/05 01:56:40;;;;;;;1999.90;999.90;;;;;;;15.24;91.05;98963.66;4157458;28;20209;-48
2022/09/05 01:59:00;;;;;;;1999.90;999.90;;;;;;;15.30;90.21;98965.34;4168130;28;20249;-50
2022/09/05 02:01:12;;;;;;;1999.90;999.90;;;;;;;15.32;90.34;98970.63;4169011;28;20303;-49
2022/09/05 02:03:32;;;;;;;1999.90;999.90;;;;;;;15.32;90.02;98965.94;4170255;28;20207;-51
2022/09/05 02:05:58;;;;;;;1999.90;999.90;;;;;;;15.34;89.81;98969.25;4153943;28;20217;-51
2022/09/05 02:08:15;;;;;;;1999.90;999.90;;;;;;;15.31;89.28;98967.00;4151226;28;20216;-49
2022/09/05 02:10:28;;;;;;;1999.90;999.90;;;;;;;15.33;89.12;98975.88;4169709;28;20322;-49
2022/09/05 02:12:38;;;;;;;1999.90;999.90;;;;;;;15.24;89.28;98969.16;4168523;28;20685;-49
2022/09/05 02:14:44;;;;;;;1999.90;999.90;;;;;;;15.26;89.25;98972.50;4153527;28;21248;-49
2022/09/05 02:16:47;;;;;;;1999.90;999.90;;;;;;;15.26;88.91;98972.50;4159416;28;20204;-49
2022/09/05 02:19:13;;;;;;;1999.90;999.90;;;;;;;15.26;89.02;98972.50;4184193;28;20577;-50
2022/09/05 02:21:50;;;;;;;1999.90;999.90;;;;;;;15.24;89.07;98969.16;4152940;28;20279;-49
2022/09/05 02:24:12;;;;;;;1999.90;999.90;;;;;;;15.23;88.79;98973.03;4122084;28;20220;-50
2022/09/05 02:26:19;;;;;;;1999.90;999.90;;;;;;;15.25;89.09;98970.84;4170355;28;21010;-49
2022/09/05 02:28:39;;;;;;;1999.90;999.90;;;;;;;15.26;88.90;98967.00;4168418;28;20226;-49
2022/09/05 02:30:46;;;;;;;1999.90;999.90;;;;;;;15.17;89.48;98965.81;4183926;28;20630;-48
2022/09/05 02:33:44;;;;;;;1999.90;999.90;;;;;;;15.16;89.00;98966.94;4170007;28;20295;-49
2022/09/05 02:36:05;;;;;;;1999.90;999.90;;;;;;;15.15;89.28;98950.66;4168092;28;20262;-49
2022/09/05 02:38:45;;;;;;;1999.90;999.90;;;;;;;15.12;89.53;98952.03;4167943;28;20247;-49
2022/09/05 02:41:25;;;;;;;1999.90;999.90;;;;;;;15.07;89.83;98956.69;4154314;28;20347;-50
2022/09/05 02:43:54;;;;;;;1999.90;999.90;;;;;;;15.03;90.14;98950.06;4169437;28;20208;-49
2022/09/05 02:46:23;;;;;;;1999.90;999.90;;;;;;;15.04;89.86;98955.28;4168652;28;20307;-49
2022/09/05 02:48:32;;;;;;;1999.90;999.90;;;;;;;15.06;89.89;98955.88;4152471;28;20224;-49
2022/09/05 02:50:57;;;;;;;1999.90;999.90;;;;;;;15.08;89.92;98959.19;4150334;28;21533;-49
2022/09/05 02:53:20;;;;;;;1999.90;999.90;;;;;;;15.08;89.11;98955.56;4149539;28;20553;-50
2022/09/05 02:56:05;;;;;;;1999.90;999.90;;;;;;;15.05;89.22;98959.72;4160049;28;20246;-50
2022/09/05 02:58:51;;;;;;;1999.90;999.90;;;;;;;15.04;88.78;98962.75;4167497;28;20656;-50
2022/09/05 03:01:15;;;;;;;1999.90;999.90;;;;;;;15.01;88.57;98953.09;4154689;28;20233;-50
2022/09/05 03:03:37;;;;;;;1999.90;999.90;;;;;;;14.97;89.07;98954.69;4169942;28;20660;-49
2022/09/05 03:05:39;;;;;;;1999.90;999.90;;;;;;;14.93;89.08;98961.88;4150084;28;20205;-50
2022/09/05 03:08:12;;;;;;;1999.90;999.90;;;;;;;14.90;89.01;98962.38;4159303;28;20299;-49
2022/09/05 03:10:35;;;;;;;1999.90;999.90;;;;;;;14.89;88.85;98949.69;4169395;28;20235;-49
2022/09/05 03:13:14;;;;;;;1999.90;999.90;;;;;;;14.93;89.07;98956.34;4182405;28;20203;-50
2022/09/05 03:15:24;;;;;;;1999.90;999.90;;;;;;;14.90;89.32;98954.09;4160096;28;20255;-50
2022/09/05 03:17:32;;;;;;;1999.90;999.90;;;;;;;14.89;89.41;98957.97;4151679;28;20208;-49
2022/09/05 03:19:54;;;;;;;1999.90;999.90;;;;;;;14.91;89.46;98952.19;4168584;28;20209;-50
2022/09/05 03:22:35;;;;;;;1999.90;999.90;;;;;;;14.91;89.37;98957.72;4167674;28;20212;-49
2022/09/05 03:24:43;;;;;;;1999.90;999.90;;;;;;;14.89;89.41;98955.22;4169715;28;20205;-50
2022/09/05 03:27:23;;;;;;;1999.90;999.90;;;;;;;14.87;89.41;98962.09;4170866;28;20196;-49
2022/09/05 03:29:48;;;;;;;1999.90;999.90;;;;;;;14.83;89.29;98956.28;4156134;28;20248;-50
2022/09/05 03:32:17;;;;;;;1999.90;999.90;;;;;;;14.82;89.34;98951.88;4164201;28;20272;-49
2022/09/05 03:34:42;;;;;;;1999.90;999.90;;;;;;;14.79;89.71;98960.69;4157623;28;20216;-49
2022/09/05 03:36:59;;;;;;;1999.90;999.90;;;;;;;14.76;89.78;98952.94;4156572;28;20623;-50
2022/09/05 03:39:22;;;;;;;1999.90;999.90;;;;;;;14.65;91.03;98959.50;4173064;28;20310;-49
2022/09/05 03:41:36;;;;;;;1999.90;999.90;;;;;;;14.61;91.42;98955.59;4152100;28;20216;-49
2022/09/05 03:44:10;;;;;;;1999.90;999.90;;;;;;;14.58;92.00;98950.59;4155812;28;20208;-49
2022/09/05 03:46:46;;;;;;;1999.90;999.90;;;;;;;14.60;91.89;98951.19;4153263;28;20589;-49
2022/09/05 03:48:58;;;;;;;1999.90;999.90;;;;;;;14.60;91.23;98950.34;4155814;28;20291;-49
2022/09/05 03:51:59;;;;;;;1999.90;999.90;;;;;;;14.61;91.09;98952.84;4172377;28;20267;-49
2022/09/05 03:54:24;;;;;;;1999.90;999.90;;;;;;;14.61;90.45;98954.75;4146251;28;20220;-51
2022/09/05 03:57:15;;;;;;;1999.90;999.90;;;;;;;14.62;90.36;98956.44;4180194;28;20282;-51
2022/09/05 04:00:01;;;;;;;1999.90;999.90;;;;;;;14.64;90.36;98957.00;4165433;28;20232;-51
2022/09/05 04:02:05;;;;;;;1999.90;999.90;;;;;;;14.64;89.91;98963.31;4171623;28;20200;-51
2022/09/05 04:04:49;;;;;;;1999.90;999.90;;;;;;;14.64;89.72;98960.56;4161634;28;20239;-50
2022/09/05 04:07:28;;;;;;;1999.90;999.90;;;;;;;14.64;89.28;98968.81;4155819;28;20290;-51
2022/09/05 04:09:49;;;;;;;1999.90;999.90;;;;;;;14.61;89.25;98969.38;4164472;28;20215;-50
2022/09/05 04:12:00;;;;;;;1999.90;999.90;;;;;;;14.61;89.38;98963.84;4162050;28;20253;-51
2022/09/05 04:14:10;;;;;;;1999.90;999.90;;;;;;;14.60;89.54;98969.63;4154588;28;20217;-51
2022/09/05 04:16:25;;;;;;;1999.90;999.90;;;;;;;14.56;89.18;98965.75;4172902;28;20207;-51
2022/09/05 04:18:35;;;;;;;1999.90;999.90;;;;;;;14.54;89.17;98971.50;4155517;28;20224;-51
2022/09/05 04:20:47;;;;;;;1999.90;999.90;;;;;;;14.54;89.13;98974.28;4155930;28;20303;-51
2022/09/05 04:23:27;;;;;;;1999.90;999.90;;;;;;;14.55;89.17;98969.56;4171638;28;20209;-51
2022/09/05 04:25:47;;;;;;;1999.90;999.90;;;;;;;14.54;89.03;98967.91;4148892;28;20213;-51
2022/09/05 04:28:27;;;;;;;1999.90;999.90;;;;;;;14.53;89.06;98978.13;4172020;28;20224;-51
2022/09/05 04:30:51;;;;;;;1999.90;999.90;;;;;;;14.50;89.22;98977.81;4155613;28;20270;-49
2022/09/05 04:33:01;;;;;;;1999.90;999.90;;;;;;;14.48;89.19;98978.09;4138959;28;20277;-48
2022/09/05 04:35:06;;;;;;;1999.90;999.90;;;;;;;14.48;89.10;98980.00;4171533;28;20251;-49
2022/09/05 04:37:09;;;;;;;1999.90;999.90;;;;;;;14.48;89.27;98980.00;4186790;28;20760;-51
2022/09/05 04:39:17;;;;;;;1999.90;999.90;;;;;;;14.47;89.13;98978.34;4153256;28;20213;-51
2022/09/05 04:41:22;;;;;;;1999.90;999.90;;;;;;;14.45;89.14;98977.78;4170562;28;20266;-51
2022/09/05 04:43:54;;;;;;;1999.90;999.90;;;;;;;14.45;89.07;98980.53;4156093;28;20231;-51
2022/09/05 04:46:04;;;;;;;1999.90;999.90;;;;;;;14.42;89.18;98976.38;4154350;28;20247;-51
2022/09/05 04:48:08;;;;;;;1999.90;999.90;;;;;;;14.43;89.15;98980.78;4169670;28;20762;-51
2022/09/05 04:50:21;;;;;;;1999.90;999.90;;;;;;;14.43;89.29;98979.97;4159406;28;20710;-52
2022/09/05 04:52:59;;;;;;;1999.90;999.90;;;;;;;14.41;89.16;98980.22;4171334;28;20223;-51
2022/09/05 04:55:07;;;;;;;1999.90;999.90;;;;;;;14.39;89.13;98982.44;4169291;28;20270;-51
2022/09/05 04:57:09;;;;;;;1999.90;999.90;;;;;;;14.41;89.03;98982.97;4159928;28;20197;-50
2022/09/05 04:59:30;;;;;;;1999.90;999.90;;;;;;;14.42;88.88;98981.88;4185300;28;20334;-51
2022/09/05 05:01:57;;;;;;;1999.90;999.90;;;;;;;14.44;89.52;98990.69;4162525;28;20690;-51
2022/09/05 05:04:23;;;;;;;1999.90;999.90;;;;;;;14.38;89.30;98991.75;4162382;28;20689;-51
2022/09/05 05:07:01;;;;;;;1999.90;999.90;;;;;;;14.27;90.47;98990.03;4161936;28;20247;-51
2022/09/05 05:09:27;;;;;;;1999.90;999.90;;;;;;;14.23;91.35;98988.88;4168714;28;20213;-51
2022/09/05 05:11:38;;;;;;;1999.90;999.90;;;;;;;14.25;91.03;98991.38;4160786;28;20208;-51
2022/09/05 05:14:05;;;;;;;1999.90;999.90;;;;;;;14.29;90.71;98998.84;4183015;28;20200;-51
2022/09/05 05:16:31;;;;;;;1999.90;999.90;;;;;;;14.31;91.08;99002.16;4162734;28;20247;-51
2022/09/05 05:18:59;;;;;;;1999.90;999.90;;;;;;;14.31;90.98;98996.66;4174910;28;20287;-51
2022/09/05 05:21:21;;;;;;;1999.90;999.90;;;;;;;14.32;91.07;99001.09;4174126;28;20263;-52
2022/09/05 05:23:44;;;;;;;1999.90;999.90;;;;;;;14.35;90.88;99005.22;4160898;28;20208;-51
2022/09/05 05:25:51;;;;;;;1999.90;999.90;;;;;;;14.39;90.60;99003.59;4171066;28;20197;-51
2022/09/05 05:28:42;;;;;;;1999.90;999.90;;;;;;;14.42;90.52;99009.41;4152641;28;20312;-51
2022/09/05 05:30:43;;;;;;;1999.90;999.90;;;;;;;14.43;91.14;99005.56;4155567;28;20228;-51
2022/09/05 05:32:52;;;;;;;1999.90;999.90;;;;;;;14.42;91.11;99009.41;4159618;28;20221;-51
2022/09/05 05:34:57;;;;;;;1999.90;999.90;;;;;;;14.45;91.65;99010.81;4160671;28;20209;-50
2022/09/05 05:37:17;;;;;;;1999.90;999.90;;;;;;;14.46;91.31;99016.06;4155812;28;20648;-50
2022/09/05 05:39:28;;;;;;;1999.90;999.90;;;;;;;14.52;91.79;99014.19;4144549;28;20311;-52
2022/09/05 05:41:49;;;;;;;1999.90;999.90;;;;;;;14.59;93.01;99014.78;4159022;28;20268;-51
2022/09/05 05:43:51;;;;;;;1999.90;999.90;;;;;;;14.62;92.97;99015.09;4184056;28;20202;-51
2022/09/05 05:45:59;;;;;;;1999.90;999.90;;;;;;;14.50;93.97;99019.94;4169080;28;20316;-50
2022/09/05 05:48:29;;;;;;;1999.90;999.90;;;;;;;14.51;94.63;99024.34;4154073;28;20355;-50
2022/09/05 05:51:08;;;;;;;1999.90;999.90;;;;;;;14.42;95.26;99020.44;4139567;28;20626;-51
2022/09/05 05:53:31;;;;;;;1999.90;999.90;;;;;;;14.47;95.45;99014.13;4184207;28;20638;-50
2022/09/05 05:55:59;;;;;;;1999.90;999.90;;;;;;;14.87;97.84;99017.19;4168132;28;20200;-51
2022/09/05 05:58:14;;;;;;;1659.05;815.13;;;;;;;15.10;97.54;99022.31;4151740;28;20591;-50
2022/09/05 06:00:22;;;;;;;1999.90;999.90;;;;;;;15.45;97.72;99019.78;4184525;28;20211;-51
2022/09/05 06:02:49;;;;;;;1999.90;999.90;;;;;;;15.73;96.17;99022.09;4153100;28;20563;-51
2022/09/05 06:05:37;;;;;;;1999.90;999.90;;;;;;;16.11;93.85;99029.94;4169641;28;20743;-50
2022/09/05 06:07:54;;;;;;;1999.90;999.90;;;;;;;16.58;92.48;99031.41;4171481;28;20311;-51
2022/09/05 06:10:43;;;;;;;1999.90;999.90;;;;;;;16.64;90.13;99038.56;4161833;28;20729;-51
2022/09/05 06:13:20;;;;;;;1999.90;999.90;;;;;;;16.39;88.23;99044.09;4157338;28;20273;-51
2022/09/05 06:16:12;;;;;;;1999.90;999.90;;;;;;;16.36;89.43;99036.31;4157348;28;20669;-50
2022/09/05 06:18:27;;;;;;;1999.90;999.90;;;;;;;16.83;89.61;99039.69;4151002;28;20294;-50
2022/09/05 06:20:41;;;;;;;1999.90;999.90;;;;;;;17.33;88.27;99039.63;4186244;28;20585;-51
2022/09/05 06:23:06;;;;;;;1999.90;999.90;;;;;;;17.72;85.79;99032.31;4184574;28;20207;-51
2022/09/05 06:25:39;;;;;;;1999.90;999.90;;;;;;;17.70;84.11;99045.59;4155871;28;20200;-50
2022/09/05 06:28:18;;;;;;;1999.90;999.90;;;;;;;17.96;85.36;99039.66;4152176;28;20221;-51
2022/09/05 06:30:22;;;;;;;1999.90;999.90;;;;;;;18.00;83.23;99039.94;4166483;28;20204;-50
2022/09/05 06:32:32;;;;;;;1999.90;999.90;;;;;;;17.68;84.39;99031.22;4141196;28;20217;-50
2022/09/05 06:35:12;;;;;;;1999.90;999.90;;;;;;;17.46;85.03;99039.88;4169332;28;20577;-51
2022/09/05 06:37:24;;;;;;;1999.90;999.90;;;;;;;17.48;84.99;99036.81;4167175;28;20200;-51
2022/09/05 06:39:31;;;;;;;1999.90;999.90;;;;;;;18.21;84.79;99041.47;4166472;28;20651;-50
2022/09/05 06:41:42;;;;;;;1999.90;999.90;;;;;;;19.02;81.51;99042.53;4169620;28;20234;-50
2022/09/05 06:43:56;;;;;;;1999.90;999.90;;;;;;;18.94;80.86;99045.94;4170084;28;20196;-50
2022/09/05 06:46:11;;;;;;;1999.90;999.90;;;;;;;18.92;81.29;99039.84;4159543;28;20201;-50
2022/09/05 06:48:27;;;;;;;1999.90;999.90;;;;;;;19.14;80.71;99048.53;4183441;28;20318;-50
2022/09/05 06:51:05;;;;;;;1999.90;999.90;;;;;;;19.53;80.20;99049.25;4156458;28;20232;-50
2022/09/05 06:53:09;;;;;;;1999.90;999.90;;;;;;;20.14;76.83;99048.22;4158270;28;20200;-49
2022/09/05 06:55:39;;;;;;;1999.90;999.90;;;;;;;20.80;73.55;99048.06;4166367;28;20219;-50
2022/09/05 06:57:58;;;;;;;1999.90;999.90;;;;;;;21.22;72.68;99039.53;4153821;28;20233;-50
2022/09/05 07:00:39;;;;;;;1999.90;999.90;;;;;;;21.59;71.54;99039.41;4149907;28;20288;-51
2022/09/05 07:02:50;;;;;;;1760.50;873.50;;;;;;;21.68;71.24;99043.16;4149176;28;20236;-50
2022/09/05 07:05:19;;;;;;;1778.65;908.78;;;;;;;21.91;70.14;99042.13;4149307;28;20228;-50
2022/09/05 07:08:21;;;;;;;1939.32;999.90;;;;;;;22.38;69.15;99036.06;4177713;28;20433;-50
2022/09/05 07:10:40;;;;;;;1713.15;953.58;;;;;;;21.77;71.89;99042.13;4108629;28;20211;-50
2022/09/05 07:13:17;;;;;;;1782.97;913.70;;;;;;;22.06;71.03;99045.44;4105559;28;20250;-50
2022/09/05 07:15:27;;;;;;;1999.90;999.90;;;;;;;22.47;69.01;99046.19;4141647;28;20669;-49
2022/09/05 07:17:36;;;;;;;1999.90;999.90;;;;;;;22.58;68.36;99055.16;4173276;28;20285;-49
2022/09/05 07:19:59;;;;;;;1999.90;999.90;;;;;;;22.93;68.41;99055.13;4154973;28;20710;-49
2022/09/05 07:22:13;;;;;;;1999.90;999.90;;;;;;;22.17;69.49;99048.81;4168151;28;20700;-49
2022/09/05 07:24:37;;;;;;;1999.90;999.90;;;;;;;22.48;70.27;99058.16;4157088;28;20662;-50
2022/09/05 07:26:57;;;;;;;1999.90;999.90;;;;;;;22.48;68.06;99055.38;4159932;28;20608;-50
2022/09/05 07:29:02;;;;;;;1999.90;999.90;;;;;;;22.88;67.54;99055.25;4173342;28;20289;-49
2022/09/05 07:31:15;;;;;;;1999.90;999.90;;;;;;;23.30;66.35;99060.31;4187596;28;20206;-49
2022/09/05 07:33:38;;;;;;;1999.90;999.90;;;;;;;23.50;66.56;99067.38;4185516;28;20354;-49
2022/09/05 07:35:39;;;;;;;1999.90;999.90;;;;;;;23.62;65.81;99067.56;4170691;28;20235;-49
2022/09/05 07:37:44;;;;;;;1999.90;999.90;;;;;;;23.89;65.20;99073.00;4150120;28;20235;-50
2022/09/05 07:39:57;;;;;;;1999.90;999.90;;;;;;;23.98;64.75;99071.06;4155126;28;20665;-50
2022/09/05 07:42:19;;;;;;;1999.90;999.90;;;;;;;23.93;65.19;99070.03;4164517;28;20220;-49
2022/09/05 07:44:26;;;;;;;1999.90;999.90;;;;;;;24.13;63.93;99066.66;4162254;28;20208;-49
2022/09/05 07:46:32;;;;;;;1999.90;999.90;;;;;;;24.42;63.24;99066.91;4161591;28;20656;-50
2022/09/05 07:48:50;;;;;;;1999.90;999.90;;;;;;;24.17;63.98;99066.84;4141936;28;20233;-50
2022/09/05 07:50:59;;;;;;;1999.90;999.90;;;;;;;24.43;64.26;99067.72;4144682;28;20208;-49
2022/09/05 07:53:21;;;;;;;1999.90;999.90;;;;;;;23.58;64.24;99072.16;4156739;28;20550;-49
2022/09/05 07:55:52;;;;;;;1999.90;999.90;;;;;;;23.05;66.40;99065.72;4162009;28;20290;-50
2022/09/05 07:58:16;;;;;;;1999.90;999.90;;;;;;;22.77;67.75;99066.97;4164862;28;20633;-49
2022/09/05 08:00:20;;;;;;;1999.90;999.90;;;;;;;23.56;66.50;99068.88;4145819;28;20220;-49
2022/09/05 08:02:30;;;;;;;1879.45;999.90;;;;;;;24.33;65.39;99074.44;4156688;28;20216;-49
2022/09/05 08:04:35;;;;;;;1999.90;999.90;;;;;;;24.81;64.10;99075.19;4169978;28;20272;-50
2022/09/05 08:06:38;;;;;;;1987.03;999.90;;;;;;;24.79;63.82;99069.09;4152846;28;20260;-49
2022/09/05 08:09:05;;;;;;;1999.90;999.90;;;;;;;24.85;64.55;99067.78;4155635;28;20223;-50
2022/09/05 08:11:31;;;;;;;1999.90;999.90;;;;;;;24.65;64.52;99070.44;4158485;28;20247;-50
2022/09/05 08:13:38;;;;;;;1999.90;999.90;;;;;;;25.19;62.86;99064.97;4142738;28;20227;-50
2022/09/05 08:15:50;;;;;;;1999.90;999.90;;;;;;;24.93;62.72;99066.97;4155570;28;20212;-50
2022/09/05 08:18:27;;;;;;;1999.90;999.90;;;;;;;24.51;63.98;99064.94;4170195;28;20257;-50
2022/09/05 08:20:46;;;;;;;1999.90;999.90;;;;;;;25.14;63.11;99062.31;4159539;28;20215;-49
2022/09/05 08:23:03;;;;;;;1999.90;999.90;;;;;;;25.52;62.30;99057.66;4187363;28;20226;-49
2022/09/05 08:25:11;;;;;;;1999.90;999.90;;;;;;;25.29;61.89;99053.44;4171614;28;20196;-49
2022/09/05 08:27:22;;;;;;;1999.90;999.90;;;;;;;25.76;61.60;99057.94;4168495;28;20568;-48
2022/09/05 08:29:34;;;;;;;1999.90;999.90;;;;;;;25.64;62.97;99049.38;4147295;28;20201;-49
2022/09/05 08:31:46;;;;;;;1999.90;999.90;;;;;;;25.81;61.62;99048.50;4153697;28;20208;-50
2022/09/05 08:33:51;;;;;;;1999.90;999.90;;;;;;;26.07;61.75;99054.84;4186354;28;20685;-48
2022/09/05 08:36:35;;;;;;;1999.90;999.90;;;;;;;25.79;60.94;99057.25;4169305;28;20654;-49
2022/09/05 08:38:39;;;;;;;1999.90;999.90;;;;;;;25.60;62.46;99054.00;4113393;28;20226;-48
2022/09/05 08:40:51;;;;;;;1999.90;999.90;;;;;;;26.17;60.84;99060.91;4116938;28;20214;-49
2022/09/05 08:43:15;;;;;;;1999.90;999.90;;;;;;;26.67;60.10;99053.31;4121834;28;20271;-49
2022/09/05 08:45:41;;;;;;;1999.90;999.90;;;;;;;26.38;59.98;99049.72;4166818;28;20204;-49
2022/09/05 08:48:08;;;;;;;1999.90;999.90;;;;;;;26.99;58.94;99052.56;4170371;28;20247;-48
2022/09/05 08:50:21;;;;;;;1999.90;999.90;;;;;;;26.99;58.68;99044.13;4153476;28;20207;-48
2022/09/05 08:52:47;;;;;;;1999.90;999.90;;;;;;;26.18;59.09;99045.69;4171486;28;20214;-49
2022/09/05 08:54:58;;;;;;;1999.90;999.90;;;;;;;25.53;59.83;99047.28;4144853;28;20201;-49
2022/09/05 08:57:17;;;;;;;1999.90;999.90;;;;;;;24.89;61.31;99060.38;4170929;28;20200;-48
2022/09/05 09:00:00;;;;;;;1999.90;999.90;;;;;;;25.85;60.34;99052.28;4161689;28;20326;-49
2022/09/05 09:02:51;;;;;;;1999.90;999.90;;;;;;;25.55;61.46;99051.41;4160571;28;20243;-48
2022/09/05 09:05:22;;;;;;;1796.57;999.90;;;;;;;25.67;61.17;99039.47;4186577;28;20207;-49
2022/09/05 09:07:32;;;;;;;1981.38;999.90;;;;;;;25.65;61.23;99045.41;4151263;28;20251;-49
2022/09/05 09:10:06;;;;;;;1999.90;999.90;;;;;;;26.87;59.23;99046.06;4171718;28;20203;-49
2022/09/05 09:12:37;;;;;;;1952.43;999.90;;;;;;;27.30;58.42;99036.09;4153780;28;20335;-49
2022/09/05 09:14:56;;;;;;;1972.20;999.90;;;;;;;27.72;58.00;99042.41;4149024;28;20247;-48
2022/09/05 09:17:18;;;;;;;1999.90;999.90;;;;;;;27.88;57.06;99035.78;4186841;28;20233;-49
2022/09/05 09:19:24;;;;;;;1999.90;999.90;;;;;;;27.66;57.14;99036.16;4154029;28;20216;-49
2022/09/05 09:21:45;;;;;;;1999.90;999.90;;;;;;;28.04;56.48;99042.34;4157280;28;20212;-50
2022/09/05 09:24:08;;;;;;;1999.90;999.90;;;;;;;28.33;56.23;99050.53;4167990;28;20212;-49
2022/09/05 09:26:15;;;;;;;1999.90;999.90;;;;;;;28.56;56.23;99039.63;4153617;28;20200;-48
2022/09/05 09:29:01;;;;;;;1999.90;999.90;;;;;;;28.73;55.38;99040.19;4177258;28;20248;-49
2022/09/05 09:31:16;;;;;;;1999.90;999.90;;;;;;;28.85;55.22;99034.50;4155273;28;20212;-48
2022/09/05 09:33:22;;;;;;;1999.90;999.90;;;;;;;28.98;54.47;99036.16;4168098;28;20663;-48
2022/09/05 09:35:37;;;;;;;1999.90;999.90;;;;;;;29.01;54.71;99029.81;4141339;28;20204;-49
2022/09/05 09:38:08;;;;;;;1999.90;999.90;;;;;;;29.05;54.48;99022.25;4169955;28;20230;-49
2022/09/05 09:40:49;;;;;;;1999.90;999.90;;;;;;;29.32;53.34;99012.97;4152276;28;20200;-49
2022/09/05 09:43:26;;;;;;;1999.90;999.90;;;;;;;29.35;54.28;99009.44;4172015;28;20247;-49
2022/09/05 09:45:50;;;;;;;1999.90;999.90;;;;;;;29.18;52.88;99006.91;4153099;28;21720;-49
2022/09/05 09:48:01;;;;;;;1999.90;999.90;;;;;;;29.21;54.43;99003.41;4167684;28;20659;-49
2022/09/05 09:50:27;;;;;;;1999.90;999.90;;;;;;;28.98;53.72;98991.03;4172713;28;20208;-49
2022/09/05 09:52:43;;;;;;;1999.90;999.90;;;;;;;29.36;53.67;99001.78;4150754;28;20205;-48
2022/09/05 09:55:09;;;;;;;1999.90;999.90;;;;;;;29.71;52.89;98989.47;4169560;28;20207;-49
2022/09/05 09:57:46;;;;;;;1999.90;999.90;;;;;;;29.34;51.74;98993.69;4147703;28;20259;-49
2022/09/05 10:00:19;;;;;;;1999.90;999.90;;;;;;;29.37;53.65;98998.59;4150563;28;20212;-49
2022/09/05 10:02:47;;;;;;;1999.90;999.90;;;;;;;29.02;52.46;98989.16;4153702;28;20228;-49
2022/09/05 10:05:31;;;;;;;1999.90;999.90;;;;;;;29.13;53.92;98998.72;4154321;28;20230;-49
2022/09/05 10:08:14;;;;;;;1999.90;999.90;;;;;;;29.11;52.48;98995.44;4169129;28;20262;-49
2022/09/05 10:11:15;;;;;;;1999.90;999.90;;;;;;;29.23;51.37;98991.72;4155753;28;20254;-49
2022/09/05 10:13:43;;;;;;;1999.90;999.90;;;;;;;29.40;50.33;98985.78;4156572;28;20235;-49
2022/09/05 10:16:00;;;;;;;1999.90;999.90;;;;;;;28.87;50.26;98980.59;4168817;28;20290;-49
2022/09/05 10:18:32;;;;;;;1999.90;999.90;;;;;;;28.61;51.13;98975.44;4162435;28;20323;-49
2022/09/05 10:20:55;;;;;;;1999.90;999.90;;;;;;;28.53;50.68;98967.91;4170500;28;20195;-49
2022/09/05 10:23:47;;;;;;;1999.90;999.90;;;;;;;29.49;51.75;98964.66;4168595;28;20223;-49
2022/09/05 10:26:15;;;;;;;1999.90;999.90;;;;;;;29.75;51.52;98966.97;4183574;28;20208;-49
2022/09/05 10:28:34;;;;;;;1999.90;999.90;;;;;;;29.52;49.17;98961.16;4167684;28;20580;-53
2022/09/05 10:31:05;;;;;;;1999.90;999.90;;;;;;;29.84;49.38;98962.78;4158856;28;20203;-49